logo dgac
Viernes 18 de Agosto del 2017
Buscar por aerodromo o helipuerto
Ingrese nombre de aeródromo, localidad o designador OACI:
METAR del 19-08-2017 a las 01:00 UTC
METAR SCIE 190100Z 27003KT 9999 FEW040 11/07 Q1019
Viento: dirección 270 grados, velocidad 3 nudos
Visibilidad: 10 km o más
Nubes: Escasa nubosidad a 4000 pies sobre el nivel del aeródromo
Temperatura: 11 °C
Rocío: 7 °C
Humedad_relativa: 76%
Presión: 1019 hPa
METAR del 19-08-2017 a las 00:00 UTC
METAR SCIE 190000Z 31002KT 9999 FEW040 11/07 Q1019
Viento: dirección 310 grados, velocidad 2 nudos
Visibilidad: 10 km o más
Nubes: Escasa nubosidad a 4000 pies sobre el nivel del aeródromo
Temperatura: 11 °C
Rocío: 7 °C
Humedad_relativa: 76%
Presión: 1019 hPa
METAR del 18-08-2017 a las 23:00 UTC
METAR SCIE 182300Z 28004KT 9999 FEW040 11/07 Q1018
Viento: dirección 280 grados, velocidad 4 nudos
Visibilidad: 10 km o más
Nubes: Escasa nubosidad a 4000 pies sobre el nivel del aeródromo
Temperatura: 11 °C
Rocío: 7 °C
Humedad_relativa: 76%
Presión: 1018 hPa
METAR del 18-08-2017 a las 22:00 UTC
METAR SCIE 182200Z 26005KT 9999 FEW033 12/07 Q1017
Viento: dirección 260 grados, velocidad 5 nudos
Visibilidad: 10 km o más
Nubes: Escasa nubosidad a 3300 pies sobre el nivel del aeródromo
Temperatura: 12 °C
Rocío: 7 °C
Humedad_relativa: 71%
Presión: 1017 hPa
METAR del 18-08-2017 a las 21:00 UTC
METAR SCIE 182100Z 26010KT 9999 FEW033 13/07 Q1016
Viento: dirección 260 grados, velocidad 10 nudos
Visibilidad: 10 km o más
Nubes: Escasa nubosidad a 3300 pies sobre el nivel del aeródromo
Temperatura: 13 °C
Rocío: 7 °C
Humedad_relativa: 67%
Presión: 1016 hPa
METAR del 18-08-2017 a las 20:00 UTC
METAR SCIE 182000Z 27011KT 9999 SCT045 13/08 Q1016
Viento: dirección 270 grados, velocidad 11 nudos
Visibilidad: 10 km o más
Nubes: Nubosidad parcial a 4500 pies sobre el nivel del aeródromo
Temperatura: 13 °C
Rocío: 8 °C
Humedad_relativa: 72%
Presión: 1016 hPa
SPECI del 18-08-2017 a las 19:02 UTC
SPECI SCIE 181902Z 25010KT 220V280 CAVOK 14/08 Q1016 PRUEBA DE COMUNICACION
Viento: dirección 250 grados, velocidad 10 nudos
Viento con dirección variable entre 220 y 280 grados
Visibilidad: 10 km o más,
    sin nubes bajo los 5.000 pies o bajo del MSA (Mínimo de Seguridad del Aeródromo),
    sin cumulonimbus, y sin fenómenos de tiempo significativo en el aeródromo o alrededores
Temperatura: 14 °C
Rocío: 8 °C
Humedad_relativa: 67%
Presión: 1016 hPa
Nan: PRUEBA
Nan: DE
Nan: COMUNICACION
METAR del 18-08-2017 a las 19:00 UTC
METAR SCIE 181900Z 26010KT 9999 FEW033 13/07 Q1016
Viento: dirección 260 grados, velocidad 10 nudos
Visibilidad: 10 km o más
Nubes: Escasa nubosidad a 3300 pies sobre el nivel del aeródromo
Temperatura: 13 °C
Rocío: 7 °C
Humedad_relativa: 67%
Presión: 1016 hPa
METAR del 18-08-2017 a las 18:00 UTC
METAR SCIE 181800Z 23011KT 9999 FEW033 SCT100 13/07 Q1016
Viento: dirección 230 grados, velocidad 11 nudos
Visibilidad: 10 km o más
Nubes: Escasa nubosidad a 3300 pies sobre el nivel del aeródromo
Nubes: Nubosidad parcial a 10000 pies sobre el nivel del aeródromo
Temperatura: 13 °C
Rocío: 7 °C
Humedad_relativa: 67%
Presión: 1016 hPa
METAR del 18-08-2017 a las 17:00 UTC
METAR SCIE 181700Z 25009KT 9999 FEW030 BKN100 13/09 Q1016
Viento: dirección 250 grados, velocidad 9 nudos
Visibilidad: 10 km o más
Nubes: Escasa nubosidad a 3000 pies sobre el nivel del aeródromo
Nubes: Nublado a 10000 pies sobre el nivel del aeródromo
Temperatura: 13 °C
Rocío: 9 °C
Humedad_relativa: 77%
Presión: 1016 hPa